sensor_id;sensor_type;location;lat;lon;timestamp;temperature;humidity
4376;DHT22;2202;50.866;12.750;2023-04-06T00:00:26;2.50;71.20
4376;DHT22;2202;50.866;12.750;2023-04-06T00:02:53;2.50;71.80
4376;DHT22;2202;50.866;12.750;2023-04-06T00:05:21;2.50;71.60
4376;DHT22;2202;50.866;12.750;2023-04-06T00:07:48;2.40;70.00
4376;DHT22;2202;50.866;12.750;2023-04-06T00:10:16;2.40;70.00
4376;DHT22;2202;50.866;12.750;2023-04-06T00:12:44;2.40;70.20
4376;DHT22;2202;50.866;12.750;2023-04-06T00:15:11;2.40;70.60
4376;DHT22;2202;50.866;12.750;2023-04-06T00:17:38;2.40;71.40
4376;DHT22;2202;50.866;12.750;2023-04-06T00:20:06;2.40;71.60
4376;DHT22;2202;50.866;12.750;2023-04-06T00:22:33;2.40;69.80
4376;DHT22;2202;50.866;12.750;2023-04-06T00:25:01;2.40;70.60
4376;DHT22;2202;50.866;12.750;2023-04-06T00:27:28;2.40;70.80
4376;DHT22;2202;50.866;12.750;2023-04-06T00:29:56;2.40;70.40
4376;DHT22;2202;50.866;12.750;2023-04-06T00:32:23;2.40;70.80
4376;DHT22;2202;50.866;12.750;2023-04-06T00:34:50;2.50;70.80
4376;DHT22;2202;50.866;12.750;2023-04-06T00:37:17;2.40;70.40
4376;DHT22;2202;50.866;12.750;2023-04-06T00:39:44;2.40;70.20
4376;DHT22;2202;50.866;12.750;2023-04-06T00:42:12;2.40;70.20
4376;DHT22;2202;50.866;12.750;2023-04-06T00:44:40;2.40;70.40
4376;DHT22;2202;50.866;12.750;2023-04-06T00:47:08;2.40;70.00
4376;DHT22;2202;50.866;12.750;2023-04-06T00:49:35;2.40;70.00
4376;DHT22;2202;50.866;12.750;2023-04-06T00:52:02;2.40;70.20
4376;DHT22;2202;50.866;12.750;2023-04-06T00:54:29;2.40;70.20
4376;DHT22;2202;50.866;12.750;2023-04-06T00:56:57;2.40;69.80
4376;DHT22;2202;50.866;12.750;2023-04-06T00:59:26;2.40;69.60
4376;DHT22;2202;50.866;12.750;2023-04-06T01:01:53;2.40;69.60
4376;DHT22;2202;50.866;12.750;2023-04-06T01:04:21;2.40;70.20
4376;DHT22;2202;50.866;12.750;2023-04-06T01:06:49;2.40;71.20
4376;DHT22;2202;50.866;12.750;2023-04-06T01:09:16;2.50;71.40
4376;DHT22;2202;50.866;12.750;2023-04-06T01:11:43;2.50;71.40
4376;DHT22;2202;50.866;12.750;2023-04-06T01:14:10;2.50;71.20
4376;DHT22;2202;50.866;12.750;2023-04-06T01:16:37;2.40;71.20
4376;DHT22;2202;50.866;12.750;2023-04-06T01:19:07;2.40;71.60
4376;DHT22;2202;50.866;12.750;2023-04-06T01:21:36;2.50;71.80
4376;DHT22;2202;50.866;12.750;2023-04-06T01:24:06;2.50;71.60
4376;DHT22;2202;50.866;12.750;2023-04-06T01:26:34;2.50;71.80
4376;DHT22;2202;50.866;12.750;2023-04-06T01:29:02;2.50;71.60
4376;DHT22;2202;50.866;12.750;2023-04-06T01:31:29;2.50;71.20
4376;DHT22;2202;50.866;12.750;2023-04-06T01:33:56;2.40;70.80
4376;DHT22;2202;50.866;12.750;2023-04-06T01:36:23;2.50;70.80
4376;DHT22;2202;50.866;12.750;2023-04-06T01:38:50;2.50;70.40
4376;DHT22;2202;50.866;12.750;2023-04-06T01:41:19;2.40;70.00
4376;DHT22;2202;50.866;12.750;2023-04-06T01:43:47;2.40;71.80
4376;DHT22;2202;50.866;12.750;2023-04-06T01:46:14;2.40;72.00
4376;DHT22;2202;50.866;12.750;2023-04-06T01:48:41;2.50;71.80
4376;DHT22;2202;50.866;12.750;2023-04-06T01:51:08;2.50;71.80
4376;DHT22;2202;50.866;12.750;2023-04-06T01:53:35;2.50;71.20
4376;DHT22;2202;50.866;12.750;2023-04-06T01:56:02;2.40;70.80
4376;DHT22;2202;50.866;12.750;2023-04-06T01:58:31;2.40;72.20
4376;DHT22;2202;50.866;12.750;2023-04-06T02:00:58;2.50;72.40
4376;DHT22;2202;50.866;12.750;2023-04-06T02:03:25;2.50;71.40
4376;DHT22;2202;50.866;12.750;2023-04-06T02:05:52;2.50;71.20
4376;DHT22;2202;50.866;12.750;2023-04-06T02:08:19;2.50;72.20
4376;DHT22;2202;50.866;12.750;2023-04-06T02:10:46;2.50;73.00
4376;DHT22;2202;50.866;12.750;2023-04-06T02:13:13;2.50;73.60
4376;DHT22;2202;50.866;12.750;2023-04-06T02:15:41;2.50;73.40
4376;DHT22;2202;50.866;12.750;2023-04-06T02:18:08;2.50;74.00
4376;DHT22;2202;50.866;12.750;2023-04-06T02:20:35;2.50;74.00
4376;DHT22;2202;50.866;12.750;2023-04-06T02:23:02;2.50;74.20
4376;DHT22;2202;50.866;12.750;2023-04-06T02:25:29;2.50;74.40
4376;DHT22;2202;50.866;12.750;2023-04-06T02:27:56;2.50;75.00
4376;DHT22;2202;50.866;12.750;2023-04-06T02:30:23;2.50;74.60
4376;DHT22;2202;50.866;12.750;2023-04-06T02:32:51;2.50;74.20
4376;DHT22;2202;50.866;12.750;2023-04-06T02:35:18;2.50;74.20
4376;DHT22;2202;50.866;12.750;2023-04-06T02:37:45;2.50;74.40
4376;DHT22;2202;50.866;12.750;2023-04-06T02:40:13;2.50;74.20
4376;DHT22;2202;50.866;12.750;2023-04-06T02:42:40;2.50;74.20
4376;DHT22;2202;50.866;12.750;2023-04-06T02:45:07;2.50;73.60
4376;DHT22;2202;50.866;12.750;2023-04-06T02:47:34;2.50;72.40
4376;DHT22;2202;50.866;12.750;2023-04-06T02:50:03;2.50;72.00
4376;DHT22;2202;50.866;12.750;2023-04-06T02:52:30;2.50;72.80
4376;DHT22;2202;50.866;12.750;2023-04-06T02:54:57;2.50;72.60
4376;DHT22;2202;50.866;12.750;2023-04-06T02:57:24;2.40;71.80
4376;DHT22;2202;50.866;12.750;2023-04-06T02:59:51;2.40;72.40
4376;DHT22;2202;50.866;12.750;2023-04-06T03:02:18;2.40;72.80
4376;DHT22;2202;50.866;12.750;2023-04-06T03:04:45;2.40;73.00
4376;DHT22;2202;50.866;12.750;2023-04-06T03:07:13;2.40;73.40
4376;DHT22;2202;50.866;12.750;2023-04-06T03:09:40;2.40;73.60
4376;DHT22;2202;50.866;12.750;2023-04-06T03:12:07;2.40;74.40
4376;DHT22;2202;50.866;12.750;2023-04-06T03:14:34;2.30;74.80
4376;DHT22;2202;50.866;12.750;2023-04-06T03:17:01;2.30;74.80
4376;DHT22;2202;50.866;12.750;2023-04-06T03:19:27;2.20;75.40
4376;DHT22;2202;50.866;12.750;2023-04-06T03:21:54;2.20;75.60
4376;DHT22;2202;50.866;12.750;2023-04-06T03:24:23;2.20;76.00
4376;DHT22;2202;50.866;12.750;2023-04-06T03:26:50;2.10;76.20
4376;DHT22;2202;50.866;12.750;2023-04-06T03:29:16;2.10;76.40
4376;DHT22;2202;50.866;12.750;2023-04-06T03:31:43;2.10;76.40
4376;DHT22;2202;50.866;12.750;2023-04-06T03:34:10;2.00;76.60
4376;DHT22;2202;50.866;12.750;2023-04-06T03:36:37;1.90;76.80
4376;DHT22;2202;50.866;12.750;2023-04-06T03:39:04;1.90;77.20
4376;DHT22;2202;50.866;12.750;2023-04-06T03:41:32;1.80;77.60
4376;DHT22;2202;50.866;12.750;2023-04-06T03:43:59;1.80;77.80
4376;DHT22;2202;50.866;12.750;2023-04-06T03:46:26;1.80;78.00
4376;DHT22;2202;50.866;12.750;2023-04-06T03:48:53;1.80;78.60
4376;DHT22;2202;50.866;12.750;2023-04-06T03:51:20;1.80;79.00
4376;DHT22;2202;50.866;12.750;2023-04-06T03:53:47;1.70;79.40
4376;DHT22;2202;50.866;12.750;2023-04-06T03:56:14;1.70;79.80
4376;DHT22;2202;50.866;12.750;2023-04-06T03:58:42;1.70;79.80
4376;DHT22;2202;50.866;12.750;2023-04-06T04:01:10;1.70;80.00
4376;DHT22;2202;50.866;12.750;2023-04-06T04:03:37;1.70;80.20
4376;DHT22;2202;50.866;12.750;2023-04-06T04:06:04;1.70;80.40
4376;DHT22;2202;50.866;12.750;2023-04-06T04:08:31;1.70;80.40
4376;DHT22;2202;50.866;12.750;2023-04-06T04:10:58;1.70;80.40
4376;DHT22;2202;50.866;12.750;2023-04-06T04:13:25;1.70;80.40
4376;DHT22;2202;50.866;12.750;2023-04-06T04:15:53;1.70;80.60
4376;DHT22;2202;50.866;12.750;2023-04-06T04:18:20;1.70;80.60
4376;DHT22;2202;50.866;12.750;2023-04-06T04:20:47;1.70;80.80
4376;DHT22;2202;50.866;12.750;2023-04-06T04:23:14;1.60;80.40
4376;DHT22;2202;50.866;12.750;2023-04-06T04:25:41;1.60;80.40
4376;DHT22;2202;50.866;12.750;2023-04-06T04:28:08;1.60;81.00
4376;DHT22;2202;50.866;12.750;2023-04-06T04:30:34;1.60;81.20
4376;DHT22;2202;50.866;12.750;2023-04-06T04:33:03;1.50;81.60
4376;DHT22;2202;50.866;12.750;2023-04-06T04:35:30;1.50;81.60
4376;DHT22;2202;50.866;12.750;2023-04-06T04:37:57;1.50;81.60
4376;DHT22;2202;50.866;12.750;2023-04-06T04:40:24;1.50;81.80
4376;DHT22;2202;50.866;12.750;2023-04-06T04:42:51;1.40;82.00
4376;DHT22;2202;50.866;12.750;2023-04-06T04:45:17;1.40;82.60
4376;DHT22;2202;50.866;12.750;2023-04-06T04:47:44;1.40;82.60
4376;DHT22;2202;50.866;12.750;2023-04-06T04:50:13;1.30;82.80
4376;DHT22;2202;50.866;12.750;2023-04-06T04:52:39;1.30;83.00
4376;DHT22;2202;50.866;12.750;2023-04-06T04:55:07;1.30;83.00
4376;DHT22;2202;50.866;12.750;2023-04-06T04:57:34;1.20;83.20
4376;DHT22;2202;50.866;12.750;2023-04-06T05:00:01;1.20;83.40
4376;DHT22;2202;50.866;12.750;2023-04-06T05:02:28;1.20;83.60
4376;DHT22;2202;50.866;12.750;2023-04-06T05:04:55;1.10;83.60
4376;DHT22;2202;50.866;12.750;2023-04-06T05:07:23;1.10;83.80
4376;DHT22;2202;50.866;12.750;2023-04-06T05:09:50;1.10;84.00
4376;DHT22;2202;50.866;12.750;2023-04-06T05:12:19;1.10;84.00
4376;DHT22;2202;50.866;12.750;2023-04-06T05:14:46;1.10;84.00
4376;DHT22;2202;50.866;12.750;2023-04-06T05:17:13;1.10;83.80
4376;DHT22;2202;50.866;12.750;2023-04-06T05:19:40;1.10;84.20
4376;DHT22;2202;50.866;12.750;2023-04-06T05:22:07;1.10;84.60
4376;DHT22;2202;50.866;12.750;2023-04-06T05:24:35;1.10;85.00
4376;DHT22;2202;50.866;12.750;2023-04-06T05:27:02;1.10;85.00
4376;DHT22;2202;50.866;12.750;2023-04-06T05:29:29;1.10;85.40
4376;DHT22;2202;50.866;12.750;2023-04-06T05:31:56;1.20;85.80
4376;DHT22;2202;50.866;12.750;2023-04-06T05:34:23;1.20;85.00
4376;DHT22;2202;50.866;12.750;2023-04-06T05:36:50;1.20;85.00
4376;DHT22;2202;50.866;12.750;2023-04-06T05:39:17;1.30;85.40
4376;DHT22;2202;50.866;12.750;2023-04-06T05:41:45;1.40;85.40
4376;DHT22;2202;50.866;12.750;2023-04-06T05:44:12;1.50;85.20
4376;DHT22;2202;50.866;12.750;2023-04-06T05:46:39;1.60;85.20
4376;DHT22;2202;50.866;12.750;2023-04-06T05:49:06;1.60;85.00
4376;DHT22;2202;50.866;12.750;2023-04-06T05:51:33;1.80;85.00
4376;DHT22;2202;50.866;12.750;2023-04-06T05:54:00;1.90;83.80
4376;DHT22;2202;50.866;12.750;2023-04-06T05:56:27;2.00;82.40
4376;DHT22;2202;50.866;12.750;2023-04-06T05:58:57;2.10;82.20
4376;DHT22;2202;50.866;12.750;2023-04-06T06:01:24;2.30;82.00
4376;DHT22;2202;50.866;12.750;2023-04-06T06:03:51;2.60;79.20
4376;DHT22;2202;50.866;12.750;2023-04-06T06:06:17;3.00;76.40
4376;DHT22;2202;50.866;12.750;2023-04-06T06:08:44;3.50;72.80
4376;DHT22;2202;50.866;12.750;2023-04-06T06:11:11;3.90;68.60
4376;DHT22;2202;50.866;12.750;2023-04-06T06:13:38;4.40;65.00
4376;DHT22;2202;50.866;12.750;2023-04-06T06:16:07;4.90;62.20
4376;DHT22;2202;50.866;12.750;2023-04-06T06:18:34;5.40;61.20
4376;DHT22;2202;50.866;12.750;2023-04-06T06:21:02;5.70;58.90
4376;DHT22;2202;50.866;12.750;2023-04-06T06:23:29;5.90;56.70
4376;DHT22;2202;50.866;12.750;2023-04-06T06:25:56;6.00;54.60
4376;DHT22;2202;50.866;12.750;2023-04-06T06:28:23;6.00;52.70
4376;DHT22;2202;50.866;12.750;2023-04-06T06:30:51;5.70;51.60
4376;DHT22;2202;50.866;12.750;2023-04-06T06:33:20;5.40;53.20
4376;DHT22;2202;50.866;12.750;2023-04-06T06:35:46;5.30;55.10
4376;DHT22;2202;50.866;12.750;2023-04-06T06:38:13;5.50;55.00
4376;DHT22;2202;50.866;12.750;2023-04-06T06:40:40;5.40;53.40
4376;DHT22;2202;50.866;12.750;2023-04-06T06:43:07;5.40;53.40
4376;DHT22;2202;50.866;12.750;2023-04-06T06:45:34;5.40;54.30
4376;DHT22;2202;50.866;12.750;2023-04-06T06:48:01;5.30;54.80
4376;DHT22;2202;50.866;12.750;2023-04-06T06:50:30;5.50;54.80
4376;DHT22;2202;50.866;12.750;2023-04-06T06:52:56;5.60;53.70
4376;DHT22;2202;50.866;12.750;2023-04-06T06:55:23;6.00;54.80
4376;DHT22;2202;50.866;12.750;2023-04-06T06:57:51;6.20;48.90
4376;DHT22;2202;50.866;12.750;2023-04-06T07:00:18;6.30;50.20
4376;DHT22;2202;50.866;12.750;2023-04-06T07:02:46;6.40;49.50
4376;DHT22;2202;50.866;12.750;2023-04-06T07:05:13;6.40;49.30
4376;DHT22;2202;50.866;12.750;2023-04-06T07:07:41;6.40;47.90
4376;DHT22;2202;50.866;12.750;2023-04-06T07:10:09;6.30;48.80
4376;DHT22;2202;50.866;12.750;2023-04-06T07:12:36;6.20;48.20
4376;DHT22;2202;50.866;12.750;2023-04-06T07:15:03;6.20;47.30
4376;DHT22;2202;50.866;12.750;2023-04-06T07:17:31;6.20;47.70
4376;DHT22;2202;50.866;12.750;2023-04-06T07:19:58;6.10;45.70
4376;DHT22;2202;50.866;12.750;2023-04-06T07:22:25;6.10;48.00
4376;DHT22;2202;50.866;12.750;2023-04-06T07:24:53;6.30;47.90
4376;DHT22;2202;50.866;12.750;2023-04-06T07:27:20;6.50;46.10
4376;DHT22;2202;50.866;12.750;2023-04-06T07:29:47;6.60;45.70
4376;DHT22;2202;50.866;12.750;2023-04-06T07:32:14;6.90;45.70
4376;DHT22;2202;50.866;12.750;2023-04-06T07:34:41;7.10;45.20
4376;DHT22;2202;50.866;12.750;2023-04-06T07:37:08;7.10;40.20
4376;DHT22;2202;50.866;12.750;2023-04-06T07:39:35;7.20;42.70
4376;DHT22;2202;50.866;12.750;2023-04-06T07:42:03;7.40;44.10
4376;DHT22;2202;50.866;12.750;2023-04-06T07:44:30;7.60;41.80
4376;DHT22;2202;50.866;12.750;2023-04-06T07:46:57;8.00;46.40
4376;DHT22;2202;50.866;12.750;2023-04-06T07:49:24;8.70;44.10
4376;DHT22;2202;50.866;12.750;2023-04-06T07:51:51;9.20;37.60
4376;DHT22;2202;50.866;12.750;2023-04-06T07:54:17;9.10;41.70
4376;DHT22;2202;50.866;12.750;2023-04-06T07:56:45;9.30;37.20
4376;DHT22;2202;50.866;12.750;2023-04-06T07:59:13;9.40;35.10
4376;DHT22;2202;50.866;12.750;2023-04-06T08:01:40;9.10;34.90
4376;DHT22;2202;50.866;12.750;2023-04-06T08:04:07;8.40;34.60
4376;DHT22;2202;50.866;12.750;2023-04-06T08:06:34;7.70;36.10
4376;DHT22;2202;50.866;12.750;2023-04-06T08:09:02;7.80;39.50
4376;DHT22;2202;50.866;12.750;2023-04-06T08:11:29;7.80;38.10
4376;DHT22;2202;50.866;12.750;2023-04-06T08:13:56;7.90;40.80
4376;DHT22;2202;50.866;12.750;2023-04-06T08:16:24;8.30;42.90
4376;DHT22;2202;50.866;12.750;2023-04-06T08:18:51;8.60;36.70
4376;DHT22;2202;50.866;12.750;2023-04-06T08:21:18;8.60;36.90
4376;DHT22;2202;50.866;12.750;2023-04-06T08:23:45;8.70;37.60
4376;DHT22;2202;50.866;12.750;2023-04-06T08:26:12;8.60;35.30
4376;DHT22;2202;50.866;12.750;2023-04-06T08:28:39;9.10;42.00
4376;DHT22;2202;50.866;12.750;2023-04-06T08:31:06;9.80;37.60
4376;DHT22;2202;50.866;12.750;2023-04-06T08:33:35;10.10;33.10
4376;DHT22;2202;50.866;12.750;2023-04-06T08:36:08;10.10;30.30
4376;DHT22;2202;50.866;12.750;2023-04-06T08:38:35;9.50;29.90
4376;DHT22;2202;50.866;12.750;2023-04-06T08:41:07;8.90;30.50
4376;DHT22;2202;50.866;12.750;2023-04-06T08:43:40;8.60;30.10
4376;DHT22;2202;50.866;12.750;2023-04-06T08:46:08;8.50;34.40
4376;DHT22;2202;50.866;12.750;2023-04-06T08:48:38;8.50;32.10
4376;DHT22;2202;50.866;12.750;2023-04-06T08:51:05;8.10;33.00
4376;DHT22;2202;50.866;12.750;2023-04-06T08:53:32;7.80;35.40
4376;DHT22;2202;50.866;12.750;2023-04-06T08:56:00;7.50;36.50
4376;DHT22;2202;50.866;12.750;2023-04-06T08:58:37;7.70;33.70
4376;DHT22;2202;50.866;12.750;2023-04-06T09:01:07;8.10;36.90
4376;DHT22;2202;50.866;12.750;2023-04-06T09:03:39;8.50;32.40
4376;DHT22;2202;50.866;12.750;2023-04-06T09:06:06;8.90;29.90
4376;DHT22;2202;50.866;12.750;2023-04-06T09:08:34;8.70;33.80
4376;DHT22;2202;50.866;12.750;2023-04-06T09:11:01;9.00;33.00
4376;DHT22;2202;50.866;12.750;2023-04-06T09:13:28;9.10;30.30
4376;DHT22;2202;50.866;12.750;2023-04-06T09:15:59;9.00;29.20
4376;DHT22;2202;50.866;12.750;2023-04-06T09:18:30;9.40;32.10
4376;DHT22;2202;50.866;12.750;2023-04-06T09:21:01;9.90;30.50
4376;DHT22;2202;50.866;12.750;2023-04-06T09:23:28;10.20;31.20
4376;DHT22;2202;50.866;12.750;2023-04-06T09:26:06;10.70;28.80
4376;DHT22;2202;50.866;12.750;2023-04-06T09:28:42;10.90;28.20
4376;DHT22;2202;50.866;12.750;2023-04-06T09:31:09;11.00;27.40
4376;DHT22;2202;50.866;12.750;2023-04-06T09:33:37;11.30;29.10
4376;DHT22;2202;50.866;12.750;2023-04-06T09:36:07;10.80;27.10
4376;DHT22;2202;50.866;12.750;2023-04-06T09:38:36;10.80;28.80
4376;DHT22;2202;50.866;12.750;2023-04-06T09:41:04;10.90;28.00
4376;DHT22;2202;50.866;12.750;2023-04-06T09:43:31;11.20;28.90
4376;DHT22;2202;50.866;12.750;2023-04-06T09:46:00;11.00;28.30
4376;DHT22;2202;50.866;12.750;2023-04-06T09:48:30;10.90;26.40
4376;DHT22;2202;50.866;12.750;2023-04-06T09:50:59;10.80;27.70
4376;DHT22;2202;50.866;12.750;2023-04-06T09:53:31;10.70;28.80
4376;DHT22;2202;50.866;12.750;2023-04-06T09:56:03;10.80;27.20
4376;DHT22;2202;50.866;12.750;2023-04-06T09:58:34;10.70;27.30
4376;DHT22;2202;50.866;12.750;2023-04-06T10:01:10;10.00;28.20
4376;DHT22;2202;50.866;12.750;2023-04-06T10:03:46;9.90;27.60
4376;DHT22;2202;50.866;12.750;2023-04-06T10:06:18;9.40;28.70
4376;DHT22;2202;50.866;12.750;2023-04-06T10:08:49;9.10;29.40
4376;DHT22;2202;50.866;12.750;2023-04-06T10:11:16;9.20;32.60
4376;DHT22;2202;50.866;12.750;2023-04-06T10:13:44;9.80;32.80
4376;DHT22;2202;50.866;12.750;2023-04-06T10:16:13;10.00;29.40
4376;DHT22;2202;50.866;12.750;2023-04-06T10:18:46;10.20;29.10
4376;DHT22;2202;50.866;12.750;2023-04-06T10:21:19;10.20;28.20
4376;DHT22;2202;50.866;12.750;2023-04-06T10:23:51;9.90;27.60
4376;DHT22;2202;50.866;12.750;2023-04-06T10:26:21;9.90;29.50
4376;DHT22;2202;50.866;12.750;2023-04-06T10:28:49;10.00;30.30
4376;DHT22;2202;50.866;12.750;2023-04-06T10:31:24;10.30;31.90
4376;DHT22;2202;50.866;12.750;2023-04-06T10:33:54;10.50;28.10
4376;DHT22;2202;50.866;12.750;2023-04-06T10:36:23;10.50;28.40
4376;DHT22;2202;50.866;12.750;2023-04-06T10:38:56;10.30;28.80
4376;DHT22;2202;50.866;12.750;2023-04-06T10:41:23;10.40;29.10
4376;DHT22;2202;50.866;12.750;2023-04-06T10:43:56;10.80;27.40
4376;DHT22;2202;50.866;12.750;2023-04-06T10:46:25;11.10;26.00
4376;DHT22;2202;50.866;12.750;2023-04-06T10:48:52;11.50;26.10
4376;DHT22;2202;50.866;12.750;2023-04-06T10:51:24;11.60;27.20
4376;DHT22;2202;50.866;12.750;2023-04-06T10:53:54;11.30;27.40
4376;DHT22;2202;50.866;12.750;2023-04-06T10:56:23;10.70;28.90
4376;DHT22;2202;50.866;12.750;2023-04-06T10:58:54;9.80;29.20
4376;DHT22;2202;50.866;12.750;2023-04-06T11:01:23;9.80;28.00
4376;DHT22;2202;50.866;12.750;2023-04-06T11:03:54;10.20;29.80
4376;DHT22;2202;50.866;12.750;2023-04-06T11:06:22;10.80;28.30
4376;DHT22;2202;50.866;12.750;2023-04-06T11:08:49;11.20;27.20
4376;DHT22;2202;50.866;12.750;2023-04-06T11:11:20;11.60;27.80
4376;DHT22;2202;50.866;12.750;2023-04-06T11:13:49;11.70;26.60
4376;DHT22;2202;50.866;12.750;2023-04-06T11:16:17;11.60;25.20
4376;DHT22;2202;50.866;12.750;2023-04-06T11:18:51;11.20;27.30
4376;DHT22;2202;50.866;12.750;2023-04-06T11:21:19;10.70;27.30
4376;DHT22;2202;50.866;12.750;2023-04-06T11:23:46;9.80;27.30
4376;DHT22;2202;50.866;12.750;2023-04-06T11:26:13;9.20;28.80
4376;DHT22;2202;50.866;12.750;2023-04-06T11:28:42;9.40;30.80
4376;DHT22;2202;50.866;12.750;2023-04-06T11:31:10;9.80;30.80
4376;DHT22;2202;50.866;12.750;2023-04-06T11:33:37;10.20;29.90
4376;DHT22;2202;50.866;12.750;2023-04-06T11:36:05;10.50;28.60
4376;DHT22;2202;50.866;12.750;2023-04-06T11:38:32;10.90;28.20
4376;DHT22;2202;50.866;12.750;2023-04-06T11:41:01;11.20;27.30
4376;DHT22;2202;50.866;12.750;2023-04-06T11:43:28;10.70;27.20
4376;DHT22;2202;50.866;12.750;2023-04-06T11:46:03;10.70;27.80
4376;DHT22;2202;50.866;12.750;2023-04-06T11:48:32;10.90;26.80
4376;DHT22;2202;50.866;12.750;2023-04-06T11:50:59;11.30;29.00
4376;DHT22;2202;50.866;12.750;2023-04-06T11:53:27;11.60;26.30
4376;DHT22;2202;50.866;12.750;2023-04-06T11:55:55;11.60;28.20
4376;DHT22;2202;50.866;12.750;2023-04-06T11:58:22;11.40;27.40
4376;DHT22;2202;50.866;12.750;2023-04-06T12:00:49;11.60;27.60
4376;DHT22;2202;50.866;12.750;2023-04-06T12:03:17;11.90;29.20
4376;DHT22;2202;50.866;12.750;2023-04-06T12:05:44;11.70;28.50
4376;DHT22;2202;50.866;12.750;2023-04-06T12:08:11;12.10;26.70
4376;DHT22;2202;50.866;12.750;2023-04-06T12:10:38;12.30;25.70
4376;DHT22;2202;50.866;12.750;2023-04-06T12:13:05;12.30;25.60
4376;DHT22;2202;50.866;12.750;2023-04-06T12:15:32;12.30;25.50
4376;DHT22;2202;50.866;12.750;2023-04-06T12:17:59;12.60;27.50
4376;DHT22;2202;50.866;12.750;2023-04-06T12:20:27;12.70;27.60
4376;DHT22;2202;50.866;12.750;2023-04-06T12:22:55;13.00;26.40
4376;DHT22;2202;50.866;12.750;2023-04-06T12:25:21;12.80;27.30
4376;DHT22;2202;50.866;12.750;2023-04-06T12:27:48;12.80;26.00
4376;DHT22;2202;50.866;12.750;2023-04-06T12:30:16;12.30;24.80
4376;DHT22;2202;50.866;12.750;2023-04-06T12:32:43;11.70;25.60
4376;DHT22;2202;50.866;12.750;2023-04-06T12:35:10;11.20;27.80
4376;DHT22;2202;50.866;12.750;2023-04-06T12:37:42;11.20;27.90
4376;DHT22;2202;50.866;12.750;2023-04-06T12:40:10;10.80;28.10
4376;DHT22;2202;50.866;12.750;2023-04-06T12:42:38;11.00;27.90
4376;DHT22;2202;50.866;12.750;2023-04-06T12:45:07;11.30;27.60
4376;DHT22;2202;50.866;12.750;2023-04-06T12:47:34;11.50;28.80
4376;DHT22;2202;50.866;12.750;2023-04-06T12:50:04;11.90;28.10
4376;DHT22;2202;50.866;12.750;2023-04-06T12:52:31;12.30;26.00
4376;DHT22;2202;50.866;12.750;2023-04-06T12:55:02;12.50;26.20
4376;DHT22;2202;50.866;12.750;2023-04-06T12:57:30;12.80;25.60
4376;DHT22;2202;50.866;12.750;2023-04-06T12:59:57;13.10;25.20
4376;DHT22;2202;50.866;12.750;2023-04-06T13:02:24;13.30;23.70
4376;DHT22;2202;50.866;12.750;2023-04-06T13:04:51;13.50;24.10
4376;DHT22;2202;50.866;12.750;2023-04-06T13:07:18;13.60;25.10
4376;DHT22;2202;50.866;12.750;2023-04-06T13:09:45;13.90;25.30
4376;DHT22;2202;50.866;12.750;2023-04-06T13:12:16;14.00;23.80
4376;DHT22;2202;50.866;12.750;2023-04-06T13:14:43;13.30;22.30
4376;DHT22;2202;50.866;12.750;2023-04-06T13:17:10;12.90;24.30
4376;DHT22;2202;50.866;12.750;2023-04-06T13:19:36;12.00;25.70
4376;DHT22;2202;50.866;12.750;2023-04-06T13:22:03;12.00;26.10
4376;DHT22;2202;50.866;12.750;2023-04-06T13:24:30;12.30;29.50
4376;DHT22;2202;50.866;12.750;2023-04-06T13:26:57;12.80;26.60
4376;DHT22;2202;50.866;12.750;2023-04-06T13:29:26;12.80;24.10
4376;DHT22;2202;50.866;12.750;2023-04-06T13:31:53;12.50;26.50
4376;DHT22;2202;50.866;12.750;2023-04-06T13:34:20;12.30;27.30
4376;DHT22;2202;50.866;12.750;2023-04-06T13:36:46;12.40;27.70
4376;DHT22;2202;50.866;12.750;2023-04-06T13:39:13;12.70;27.20
4376;DHT22;2202;50.866;12.750;2023-04-06T13:41:40;12.70;26.10
4376;DHT22;2202;50.866;12.750;2023-04-06T13:44:07;12.90;26.00
4376;DHT22;2202;50.866;12.750;2023-04-06T13:46:35;13.10;26.40
4376;DHT22;2202;50.866;12.750;2023-04-06T13:49:02;13.30;25.10
4376;DHT22;2202;50.866;12.750;2023-04-06T13:51:29;13.60;25.00
4376;DHT22;2202;50.866;12.750;2023-04-06T13:53:56;13.90;24.90
4376;DHT22;2202;50.866;12.750;2023-04-06T13:56:23;13.90;23.70
4376;DHT22;2202;50.866;12.750;2023-04-06T13:58:53;13.60;24.30
4376;DHT22;2202;50.866;12.750;2023-04-06T14:01:20;13.50;25.20
4376;DHT22;2202;50.866;12.750;2023-04-06T14:03:49;13.40;24.90
4376;DHT22;2202;50.866;12.750;2023-04-06T14:06:16;13.80;25.60
4376;DHT22;2202;50.866;12.750;2023-04-06T14:08:43;14.10;23.50
4376;DHT22;2202;50.866;12.750;2023-04-06T14:11:12;14.40;24.20
4376;DHT22;2202;50.866;12.750;2023-04-06T14:13:39;14.50;24.80
4376;DHT22;2202;50.866;12.750;2023-04-06T14:16:07;14.40;25.60
4376;DHT22;2202;50.866;12.750;2023-04-06T14:18:34;14.50;24.30
4376;DHT22;2202;50.866;12.750;2023-04-06T14:21:02;14.50;23.60
4376;DHT22;2202;50.866;12.750;2023-04-06T14:23:29;14.60;23.20
4376;DHT22;2202;50.866;12.750;2023-04-06T14:26:03;14.70;24.00
4376;DHT22;2202;50.866;12.750;2023-04-06T14:28:31;14.70;21.60
4376;DHT22;2202;50.866;12.750;2023-04-06T14:30:59;14.80;23.90
4376;DHT22;2202;50.866;12.750;2023-04-06T14:33:26;15.00;22.40
4376;DHT22;2202;50.866;12.750;2023-04-06T14:35:53;15.20;23.10
4376;DHT22;2202;50.866;12.750;2023-04-06T14:38:21;15.10;21.90
4376;DHT22;2202;50.866;12.750;2023-04-06T14:40:48;15.00;23.60
4376;DHT22;2202;50.866;12.750;2023-04-06T14:43:15;15.30;23.10
4376;DHT22;2202;50.866;12.750;2023-04-06T14:45:42;15.20;21.30
4376;DHT22;2202;50.866;12.750;2023-04-06T14:48:09;15.10;22.00
4376;DHT22;2202;50.866;12.750;2023-04-06T14:50:38;15.20;24.20
4376;DHT22;2202;50.866;12.750;2023-04-06T14:53:05;15.30;24.00
4376;DHT22;2202;50.866;12.750;2023-04-06T14:55:38;15.30;23.70
4376;DHT22;2202;50.866;12.750;2023-04-06T14:58:05;15.40;23.20
4376;DHT22;2202;50.866;12.750;2023-04-06T15:00:32;15.50;21.10
4376;DHT22;2202;50.866;12.750;2023-04-06T15:02:59;14.20;23.50
4376;DHT22;2202;50.866;12.750;2023-04-06T15:05:26;14.00;24.70
4376;DHT22;2202;50.866;12.750;2023-04-06T15:07:53;14.00;24.50
4376;DHT22;2202;50.866;12.750;2023-04-06T15:10:20;14.40;24.80
4376;DHT22;2202;50.866;12.750;2023-04-06T15:12:48;14.20;22.40
4376;DHT22;2202;50.866;12.750;2023-04-06T15:15:15;13.70;24.60
4376;DHT22;2202;50.866;12.750;2023-04-06T15:17:42;13.90;26.20
4376;DHT22;2202;50.866;12.750;2023-04-06T15:20:09;13.90;23.00
4376;DHT22;2202;50.866;12.750;2023-04-06T15:22:36;13.50;22.90
4376;DHT22;2202;50.866;12.750;2023-04-06T15:25:04;12.90;23.70
4376;DHT22;2202;50.866;12.750;2023-04-06T15:27:31;12.40;24.40
4376;DHT22;2202;50.866;12.750;2023-04-06T15:29:59;12.60;25.30
4376;DHT22;2202;50.866;12.750;2023-04-06T15:32:26;12.90;25.10
4376;DHT22;2202;50.866;12.750;2023-04-06T15:34:53;13.40;25.10
4376;DHT22;2202;50.866;12.750;2023-04-06T15:37:20;13.80;23.00
4376;DHT22;2202;50.866;12.750;2023-04-06T15:39:47;13.80;25.30
4376;DHT22;2202;50.866;12.750;2023-04-06T15:42:13;14.10;25.10
4376;DHT22;2202;50.866;12.750;2023-04-06T15:44:40;13.80;21.80
4376;DHT22;2202;50.866;12.750;2023-04-06T15:47:09;13.40;23.90
4376;DHT22;2202;50.866;12.750;2023-04-06T15:49:36;13.30;23.40
4376;DHT22;2202;50.866;12.750;2023-04-06T15:52:03;12.90;24.40
4376;DHT22;2202;50.866;12.750;2023-04-06T15:54:29;12.70;24.20
4376;DHT22;2202;50.866;12.750;2023-04-06T15:56:58;12.40;24.20